sensor_id;sensor_type;location;lat;lon;timestamp;P1;durP1;ratioP1;P2;durP2;ratioP2
22470;SDS011;11402;51.374;6.594;2023-07-31T00:02:03;0.00;;;0.00;;
22470;SDS011;11402;51.374;6.594;2023-07-31T00:04:30;0.00;;;0.00;;
22470;SDS011;11402;51.374;6.594;2023-07-31T00:06:55;0.00;;;0.00;;
22470;SDS011;11402;51.374;6.594;2023-07-31T00:09:21;0.00;;;0.00;;
22470;SDS011;11402;51.374;6.594;2023-07-31T00:11:46;0.00;;;0.00;;
22470;SDS011;11402;51.374;6.594;2023-07-31T00:14:12;0.00;;;0.00;;
22470;SDS011;11402;51.374;6.594;2023-07-31T00:16:37;0.00;;;0.00;;
22470;SDS011;11402;51.374;6.594;2023-07-31T00:19:03;0.00;;;0.00;;
22470;SDS011;11402;51.374;6.594;2023-07-31T00:21:29;0.00;;;0.00;;
22470;SDS011;11402;51.374;6.594;2023-07-31T00:23:54;0.00;;;0.00;;
22470;SDS011;11402;51.374;6.594;2023-07-31T00:26:20;0.00;;;0.00;;
22470;SDS011;11402;51.374;6.594;2023-07-31T00:28:45;0.00;;;0.00;;
22470;SDS011;11402;51.374;6.594;2023-07-31T00:31:11;0.00;;;0.00;;
22470;SDS011;11402;51.374;6.594;2023-07-31T00:33:37;0.00;;;0.00;;
22470;SDS011;11402;51.374;6.594;2023-07-31T00:36:03;0.00;;;0.00;;
22470;SDS011;11402;51.374;6.594;2023-07-31T00:38:28;0.00;;;0.00;;
22470;SDS011;11402;51.374;6.594;2023-07-31T00:40:54;0.00;;;0.00;;
22470;SDS011;11402;51.374;6.594;2023-07-31T00:43:20;0.00;;;0.00;;
22470;SDS011;11402;51.374;6.594;2023-07-31T00:45:45;0.00;;;0.00;;
22470;SDS011;11402;51.374;6.594;2023-07-31T00:48:11;0.00;;;0.00;;
22470;SDS011;11402;51.374;6.594;2023-07-31T00:50:37;0.00;;;0.00;;
22470;SDS011;11402;51.374;6.594;2023-07-31T00:53:03;0.00;;;0.00;;
22470;SDS011;11402;51.374;6.594;2023-07-31T00:55:29;0.00;;;0.00;;
22470;SDS011;11402;51.374;6.594;2023-07-31T00:57:55;0.00;;;0.00;;
22470;SDS011;11402;51.374;6.594;2023-07-31T01:00:21;0.00;;;0.00;;
22470;SDS011;11402;51.374;6.594;2023-07-31T01:02:48;0.00;;;0.00;;
22470;SDS011;11402;51.374;6.594;2023-07-31T01:05:15;0.00;;;0.00;;
22470;SDS011;11402;51.374;6.594;2023-07-31T01:11:15;0.00;;;0.00;;
22470;SDS011;11402;51.374;6.594;2023-07-31T01:13:52;0.00;;;0.00;;
22470;SDS011;11402;51.374;6.594;2023-07-31T01:16:19;0.00;;;0.00;;
22470;SDS011;11402;51.374;6.594;2023-07-31T01:18:44;0.00;;;0.00;;
22470;SDS011;11402;51.374;6.594;2023-07-31T01:21:18;0.00;;;0.00;;
22470;SDS011;11402;51.374;6.594;2023-07-31T01:24:07;0.00;;;0.00;;
22470;SDS011;11402;51.374;6.594;2023-07-31T01:26:55;0.00;;;0.00;;
22470;SDS011;11402;51.374;6.594;2023-07-31T01:32:12;0.00;;;0.00;;
22470;SDS011;11402;51.374;6.594;2023-07-31T01:34:39;0.00;;;0.00;;
22470;SDS011;11402;51.374;6.594;2023-07-31T01:37:06;0.00;;;0.00;;
22470;SDS011;11402;51.374;6.594;2023-07-31T01:39:32;0.00;;;0.00;;
22470;SDS011;11402;51.374;6.594;2023-07-31T01:41:58;0.00;;;0.00;;
22470;SDS011;11402;51.374;6.594;2023-07-31T01:44:23;0.00;;;0.00;;
22470;SDS011;11402;51.374;6.594;2023-07-31T01:46:49;0.00;;;0.00;;
22470;SDS011;11402;51.374;6.594;2023-07-31T01:49:15;0.00;;;0.00;;
22470;SDS011;11402;51.374;6.594;2023-07-31T01:51:40;0.00;;;0.00;;
22470;SDS011;11402;51.374;6.594;2023-07-31T01:54:06;0.00;;;0.00;;
22470;SDS011;11402;51.374;6.594;2023-07-31T01:56:32;0.00;;;0.00;;
22470;SDS011;11402;51.374;6.594;2023-07-31T01:58:57;0.00;;;0.00;;
22470;SDS011;11402;51.374;6.594;2023-07-31T02:01:23;0.00;;;0.00;;
22470;SDS011;11402;51.374;6.594;2023-07-31T02:03:48;0.00;;;0.00;;
22470;SDS011;11402;51.374;6.594;2023-07-31T02:06:14;0.00;;;0.00;;
22470;SDS011;11402;51.374;6.594;2023-07-31T02:08:40;0.00;;;0.00;;
22470;SDS011;11402;51.374;6.594;2023-07-31T02:11:06;0.00;;;0.00;;
22470;SDS011;11402;51.374;6.594;2023-07-31T02:13:31;15.48;;;12.07;;
22470;SDS011;11402;51.374;6.594;2023-07-31T02:15:57;18.88;;;5.90;;
22470;SDS011;11402;51.374;6.594;2023-07-31T02:18:22;22.63;;;6.93;;
22470;SDS011;11402;51.374;6.594;2023-07-31T02:20:49;21.73;;;6.50;;
22470;SDS011;11402;51.374;6.594;2023-07-31T02:23:16;22.73;;;6.97;;
22470;SDS011;11402;51.374;6.594;2023-07-31T02:25:45;23.58;;;6.60;;
22470;SDS011;11402;51.374;6.594;2023-07-31T02:28:11;7.15;;;2.38;;
22470;SDS011;11402;51.374;6.594;2023-07-31T02:30:37;21.42;;;7.43;;
22470;SDS011;11402;51.374;6.594;2023-07-31T02:33:03;24.15;;;6.95;;
22470;SDS011;11402;51.374;6.594;2023-07-31T02:35:29;24.83;;;8.43;;
22470;SDS011;11402;51.374;6.594;2023-07-31T02:37:55;24.25;;;7.63;;
22470;SDS011;11402;51.374;6.594;2023-07-31T02:40:21;20.83;;;6.72;;
22470;SDS011;11402;51.374;6.594;2023-07-31T02:42:47;15.82;;;6.25;;
22470;SDS011;11402;51.374;6.594;2023-07-31T02:45:13;17.80;;;6.15;;
22470;SDS011;11402;51.374;6.594;2023-07-31T02:47:38;19.40;;;6.30;;
22470;SDS011;11402;51.374;6.594;2023-07-31T02:50:04;25.25;;;6.75;;
22470;SDS011;11402;51.374;6.594;2023-07-31T02:52:30;15.95;;;6.00;;
22470;SDS011;11402;51.374;6.594;2023-07-31T02:54:56;19.60;;;6.70;;
22470;SDS011;11402;51.374;6.594;2023-07-31T02:57:22;16.98;;;5.90;;
22470;SDS011;11402;51.374;6.594;2023-07-31T02:59:47;23.52;;;6.63;;
22470;SDS011;11402;51.374;6.594;2023-07-31T03:02:13;17.70;;;6.20;;
22470;SDS011;11402;51.374;6.594;2023-07-31T03:04:39;18.55;;;6.38;;
22470;SDS011;11402;51.374;6.594;2023-07-31T03:07:05;18.08;;;6.45;;
22470;SDS011;11402;51.374;6.594;2023-07-31T03:09:30;26.58;;;7.30;;
22470;SDS011;11402;51.374;6.594;2023-07-31T03:11:56;23.35;;;7.78;;
22470;SDS011;11402;51.374;6.594;2023-07-31T03:14:21;24.20;;;7.05;;
22470;SDS011;11402;51.374;6.594;2023-07-31T03:16:47;17.23;;;5.43;;
22470;SDS011;11402;51.374;6.594;2023-07-31T03:19:13;23.38;;;7.28;;
22470;SDS011;11402;51.374;6.594;2023-07-31T03:21:39;22.90;;;6.88;;
22470;SDS011;11402;51.374;6.594;2023-07-31T03:24:05;18.45;;;6.22;;
22470;SDS011;11402;51.374;6.594;2023-07-31T03:26:31;17.13;;;6.85;;
22470;SDS011;11402;51.374;6.594;2023-07-31T03:28:57;20.15;;;6.72;;
22470;SDS011;11402;51.374;6.594;2023-07-31T03:31:23;17.08;;;6.57;;
22470;SDS011;11402;51.374;6.594;2023-07-31T03:33:49;14.32;;;5.82;;
22470;SDS011;11402;51.374;6.594;2023-07-31T03:36:14;18.75;;;6.25;;
22470;SDS011;11402;51.374;6.594;2023-07-31T03:38:40;18.50;;;5.93;;
22470;SDS011;11402;51.374;6.594;2023-07-31T03:41:05;20.58;;;5.80;;
22470;SDS011;11402;51.374;6.594;2023-07-31T03:43:31;21.52;;;6.65;;
22470;SDS011;11402;51.374;6.594;2023-07-31T03:45:59;16.98;;;5.70;;
22470;SDS011;11402;51.374;6.594;2023-07-31T03:48:25;21.05;;;7.15;;
22470;SDS011;11402;51.374;6.594;2023-07-31T03:50:51;20.67;;;6.15;;
22470;SDS011;11402;51.374;6.594;2023-07-31T03:53:16;16.55;;;5.70;;
22470;SDS011;11402;51.374;6.594;2023-07-31T03:55:42;25.17;;;6.95;;
22470;SDS011;11402;51.374;6.594;2023-07-31T03:58:08;15.27;;;5.80;;
22470;SDS011;11402;51.374;6.594;2023-07-31T04:00:33;22.55;;;7.20;;
22470;SDS011;11402;51.374;6.594;2023-07-31T04:02:59;18.17;;;5.70;;
22470;SDS011;11402;51.374;6.594;2023-07-31T04:05:25;18.13;;;6.68;;
22470;SDS011;11402;51.374;6.594;2023-07-31T04:07:50;19.23;;;6.05;;
22470;SDS011;11402;51.374;6.594;2023-07-31T04:10:16;21.70;;;6.97;;
22470;SDS011;11402;51.374;6.594;2023-07-31T04:12:41;22.52;;;7.03;;
22470;SDS011;11402;51.374;6.594;2023-07-31T04:15:07;14.52;;;6.03;;
22470;SDS011;11402;51.374;6.594;2023-07-31T04:17:33;26.90;;;7.97;;
22470;SDS011;11402;51.374;6.594;2023-07-31T04:19:58;26.08;;;7.90;;
22470;SDS011;11402;51.374;6.594;2023-07-31T04:22:24;20.58;;;6.60;;
22470;SDS011;11402;51.374;6.594;2023-07-31T04:24:50;13.82;;;6.88;;
22470;SDS011;11402;51.374;6.594;2023-07-31T04:27:15;19.73;;;7.63;;
22470;SDS011;11402;51.374;6.594;2023-07-31T04:29:41;17.70;;;6.13;;
22470;SDS011;11402;51.374;6.594;2023-07-31T04:32:07;15.25;;;6.43;;
22470;SDS011;11402;51.374;6.594;2023-07-31T04:34:33;26.55;;;8.20;;
22470;SDS011;11402;51.374;6.594;2023-07-31T04:36:59;26.45;;;7.80;;
22470;SDS011;11402;51.374;6.594;2023-07-31T04:39:24;27.10;;;7.75;;
22470;SDS011;11402;51.374;6.594;2023-07-31T04:41:50;16.15;;;6.65;;
22470;SDS011;11402;51.374;6.594;2023-07-31T04:44:15;20.38;;;6.38;;
22470;SDS011;11402;51.374;6.594;2023-07-31T04:46:41;16.10;;;6.72;;
22470;SDS011;11402;51.374;6.594;2023-07-31T04:49:06;20.17;;;8.20;;
22470;SDS011;11402;51.374;6.594;2023-07-31T04:51:32;15.95;;;6.35;;
22470;SDS011;11402;51.374;6.594;2023-07-31T04:53:58;17.67;;;6.60;;
22470;SDS011;11402;51.374;6.594;2023-07-31T04:56:23;22.58;;;7.22;;
22470;SDS011;11402;51.374;6.594;2023-07-31T04:58:49;12.60;;;5.85;;
22470;SDS011;11402;51.374;6.594;2023-07-31T05:01:14;18.67;;;7.32;;
22470;SDS011;11402;51.374;6.594;2023-07-31T05:03:40;16.33;;;6.57;;
22470;SDS011;11402;51.374;6.594;2023-07-31T05:06:06;17.48;;;6.65;;
22470;SDS011;11402;51.374;6.594;2023-07-31T05:08:31;17.63;;;6.65;;
22470;SDS011;11402;51.374;6.594;2023-07-31T05:10:58;13.10;;;6.97;;
22470;SDS011;11402;51.374;6.594;2023-07-31T05:13:24;15.85;;;7.05;;
22470;SDS011;11402;51.374;6.594;2023-07-31T05:15:49;17.77;;;6.40;;
22470;SDS011;11402;51.374;6.594;2023-07-31T05:18:15;14.18;;;6.55;;
22470;SDS011;11402;51.374;6.594;2023-07-31T05:20:40;15.38;;;6.45;;
22470;SDS011;11402;51.374;6.594;2023-07-31T05:23:06;16.90;;;6.07;;
22470;SDS011;11402;51.374;6.594;2023-07-31T05:25:32;15.95;;;6.72;;
22470;SDS011;11402;51.374;6.594;2023-07-31T05:27:57;13.70;;;6.07;;
22470;SDS011;11402;51.374;6.594;2023-07-31T05:30:23;18.50;;;6.80;;
22470;SDS011;11402;51.374;6.594;2023-07-31T05:32:48;16.10;;;6.35;;
22470;SDS011;11402;51.374;6.594;2023-07-31T05:35:14;16.67;;;6.65;;
22470;SDS011;11402;51.374;6.594;2023-07-31T05:37:39;24.70;;;8.38;;
22470;SDS011;11402;51.374;6.594;2023-07-31T05:40:05;19.67;;;7.80;;
22470;SDS011;11402;51.374;6.594;2023-07-31T05:42:31;20.98;;;7.70;;
22470;SDS011;11402;51.374;6.594;2023-07-31T05:44:57;19.38;;;8.02;;
22470;SDS011;11402;51.374;6.594;2023-07-31T05:47:22;12.45;;;6.68;;
22470;SDS011;11402;51.374;6.594;2023-07-31T05:49:48;20.30;;;7.82;;
22470;SDS011;11402;51.374;6.594;2023-07-31T05:52:14;15.07;;;7.85;;
22470;SDS011;11402;51.374;6.594;2023-07-31T05:54:41;12.30;;;6.68;;
22470;SDS011;11402;51.374;6.594;2023-07-31T05:57:07;14.88;;;6.70;;
22470;SDS011;11402;51.374;6.594;2023-07-31T05:59:32;21.30;;;7.85;;
22470;SDS011;11402;51.374;6.594;2023-07-31T06:01:58;14.70;;;6.07;;
22470;SDS011;11402;51.374;6.594;2023-07-31T06:04:24;10.73;;;6.00;;
22470;SDS011;11402;51.374;6.594;2023-07-31T06:06:50;11.95;;;6.22;;
22470;SDS011;11402;51.374;6.594;2023-07-31T06:09:16;15.05;;;6.70;;
22470;SDS011;11402;51.374;6.594;2023-07-31T06:11:42;15.35;;;6.53;;
22470;SDS011;11402;51.374;6.594;2023-07-31T06:14:07;11.80;;;6.60;;
22470;SDS011;11402;51.374;6.594;2023-07-31T06:16:33;14.75;;;6.47;;
22470;SDS011;11402;51.374;6.594;2023-07-31T06:18:59;11.00;;;6.20;;
22470;SDS011;11402;51.374;6.594;2023-07-31T06:21:26;18.05;;;6.50;;
22470;SDS011;11402;51.374;6.594;2023-07-31T06:23:51;13.65;;;6.85;;
22470;SDS011;11402;51.374;6.594;2023-07-31T06:26:17;12.15;;;6.40;;
22470;SDS011;11402;51.374;6.594;2023-07-31T06:28:42;13.95;;;6.40;;
22470;SDS011;11402;51.374;6.594;2023-07-31T06:31:08;12.65;;;6.65;;
22470;SDS011;11402;51.374;6.594;2023-07-31T06:33:34;12.30;;;7.18;;
22470;SDS011;11402;51.374;6.594;2023-07-31T06:36:00;11.70;;;7.10;;
22470;SDS011;11402;51.374;6.594;2023-07-31T06:38:26;13.07;;;6.85;;
22470;SDS011;11402;51.374;6.594;2023-07-31T06:40:52;14.27;;;6.88;;
22470;SDS011;11402;51.374;6.594;2023-07-31T06:43:18;15.80;;;6.82;;
22470;SDS011;11402;51.374;6.594;2023-07-31T06:45:43;12.40;;;5.93;;
22470;SDS011;11402;51.374;6.594;2023-07-31T06:48:09;10.48;;;6.53;;
22470;SDS011;11402;51.374;6.594;2023-07-31T06:50:35;15.73;;;6.30;;
22470;SDS011;11402;51.374;6.594;2023-07-31T06:53:01;11.93;;;6.03;;
22470;SDS011;11402;51.374;6.594;2023-07-31T06:55:27;12.40;;;6.55;;
22470;SDS011;11402;51.374;6.594;2023-07-31T06:57:54;18.20;;;6.75;;
22470;SDS011;11402;51.374;6.594;2023-07-31T07:00:20;18.52;;;6.57;;
22470;SDS011;11402;51.374;6.594;2023-07-31T07:02:47;13.45;;;6.68;;
22470;SDS011;11402;51.374;6.594;2023-07-31T07:05:14;16.50;;;6.68;;
22470;SDS011;11402;51.374;6.594;2023-07-31T07:07:40;11.63;;;7.00;;
22470;SDS011;11402;51.374;6.594;2023-07-31T07:10:06;11.55;;;6.78;;
22470;SDS011;11402;51.374;6.594;2023-07-31T07:12:32;11.40;;;6.70;;
22470;SDS011;11402;51.374;6.594;2023-07-31T07:14:59;15.40;;;7.38;;
22470;SDS011;11402;51.374;6.594;2023-07-31T07:17:25;15.48;;;8.25;;
22470;SDS011;11402;51.374;6.594;2023-07-31T07:19:52;16.95;;;7.38;;
22470;SDS011;11402;51.374;6.594;2023-07-31T07:22:18;15.13;;;6.88;;
22470;SDS011;11402;51.374;6.594;2023-07-31T07:24:43;18.60;;;9.27;;
22470;SDS011;11402;51.374;6.594;2023-07-31T07:27:09;16.17;;;6.95;;
22470;SDS011;11402;51.374;6.594;2023-07-31T07:29:34;21.33;;;8.90;;
22470;SDS011;11402;51.374;6.594;2023-07-31T07:32:00;12.68;;;6.28;;
22470;SDS011;11402;51.374;6.594;2023-07-31T07:34:26;17.65;;;8.25;;
22470;SDS011;11402;51.374;6.594;2023-07-31T07:36:53;12.65;;;6.22;;
22470;SDS011;11402;51.374;6.594;2023-07-31T07:39:19;16.85;;;8.02;;
22470;SDS011;11402;51.374;6.594;2023-07-31T07:41:45;17.50;;;8.27;;
22470;SDS011;11402;51.374;6.594;2023-07-31T07:44:11;15.30;;;7.55;;
22470;SDS011;11402;51.374;6.594;2023-07-31T07:46:37;15.80;;;6.72;;
22470;SDS011;11402;51.374;6.594;2023-07-31T07:49:03;17.27;;;7.22;;
22470;SDS011;11402;51.374;6.594;2023-07-31T07:51:29;16.55;;;7.43;;
22470;SDS011;11402;51.374;6.594;2023-07-31T07:53:56;15.40;;;7.05;;
22470;SDS011;11402;51.374;6.594;2023-07-31T07:56:25;13.75;;;6.93;;
22470;SDS011;11402;51.374;6.594;2023-07-31T07:58:52;11.77;;;7.13;;
22470;SDS011;11402;51.374;6.594;2023-07-31T08:01:17;12.10;;;6.85;;
22470;SDS011;11402;51.374;6.594;2023-07-31T08:03:43;14.10;;;7.03;;
22470;SDS011;11402;51.374;6.594;2023-07-31T08:06:09;15.80;;;7.03;;
22470;SDS011;11402;51.374;6.594;2023-07-31T08:08:35;11.65;;;6.30;;
22470;SDS011;11402;51.374;6.594;2023-07-31T08:11:01;13.75;;;5.72;;
22470;SDS011;11402;51.374;6.594;2023-07-31T08:13:27;12.00;;;6.53;;
22470;SDS011;11402;51.374;6.594;2023-07-31T08:15:53;12.77;;;6.13;;
22470;SDS011;11402;51.374;6.594;2023-07-31T08:18:18;12.68;;;6.38;;
22470;SDS011;11402;51.374;6.594;2023-07-31T08:20:45;13.32;;;6.20;;
22470;SDS011;11402;51.374;6.594;2023-07-31T08:23:10;13.75;;;6.00;;
22470;SDS011;11402;51.374;6.594;2023-07-31T08:25:36;12.55;;;6.32;;
22470;SDS011;11402;51.374;6.594;2023-07-31T08:28:05;11.13;;;5.93;;
22470;SDS011;11402;51.374;6.594;2023-07-31T08:30:31;14.57;;;6.15;;
22470;SDS011;11402;51.374;6.594;2023-07-31T08:32:58;12.68;;;6.35;;
22470;SDS011;11402;51.374;6.594;2023-07-31T08:35:24;13.27;;;6.28;;
22470;SDS011;11402;51.374;6.594;2023-07-31T08:37:50;16.73;;;6.03;;
22470;SDS011;11402;51.374;6.594;2023-07-31T08:40:16;13.48;;;6.60;;
22470;SDS011;11402;51.374;6.594;2023-07-31T08:42:48;13.93;;;6.47;;
22470;SDS011;11402;51.374;6.594;2023-07-31T08:47:45;10.52;;;5.88;;
22470;SDS011;11402;51.374;6.594;2023-07-31T08:50:16;16.90;;;6.03;;
22470;SDS011;11402;51.374;6.594;2023-07-31T08:52:43;15.27;;;6.60;;
22470;SDS011;11402;51.374;6.594;2023-07-31T08:55:10;10.40;;;5.82;;
22470;SDS011;11402;51.374;6.594;2023-07-31T08:57:36;18.40;;;6.78;;
22470;SDS011;11402;51.374;6.594;2023-07-31T09:00:07;15.68;;;6.78;;
22470;SDS011;11402;51.374;6.594;2023-07-31T09:02:35;16.63;;;5.57;;
22470;SDS011;11402;51.374;6.594;2023-07-31T09:05:06;12.07;;;6.25;;
22470;SDS011;11402;51.374;6.594;2023-07-31T09:07:35;11.85;;;6.45;;
22470;SDS011;11402;51.374;6.594;2023-07-31T09:10:02;14.70;;;6.22;;
22470;SDS011;11402;51.374;6.594;2023-07-31T09:12:29;10.65;;;6.03;;
22470;SDS011;11402;51.374;6.594;2023-07-31T09:14:56;11.70;;;5.85;;
22470;SDS011;11402;51.374;6.594;2023-07-31T09:17:29;13.50;;;6.78;;
22470;SDS011;11402;51.374;6.594;2023-07-31T09:20:19;12.43;;;6.72;;
22470;SDS011;11402;51.374;6.594;2023-07-31T09:22:45;10.98;;;6.20;;
22470;SDS011;11402;51.374;6.594;2023-07-31T09:25:19;12.40;;;6.60;;
22470;SDS011;11402;51.374;6.594;2023-07-31T09:27:47;10.70;;;6.10;;
22470;SDS011;11402;51.374;6.594;2023-07-31T09:30:13;10.88;;;5.82;;
22470;SDS011;11402;51.374;6.594;2023-07-31T09:32:39;10.05;;;6.45;;
22470;SDS011;11402;51.374;6.594;2023-07-31T09:37:47;14.10;;;6.47;;
22470;SDS011;11402;51.374;6.594;2023-07-31T09:40:32;15.18;;;6.15;;
22470;SDS011;11402;51.374;6.594;2023-07-31T09:43:09;11.32;;;6.18;;
22470;SDS011;11402;51.374;6.594;2023-07-31T09:45:45;11.30;;;6.32;;
22470;SDS011;11402;51.374;6.594;2023-07-31T09:48:12;11.05;;;6.28;;
22470;SDS011;11402;51.374;6.594;2023-07-31T09:50:42;13.10;;;6.68;;
22470;SDS011;11402;51.374;6.594;2023-07-31T09:53:10;12.82;;;6.20;;
22470;SDS011;11402;51.374;6.594;2023-07-31T09:55:36;9.05;;;5.72;;
22470;SDS011;11402;51.374;6.594;2023-07-31T09:58:07;11.80;;;5.82;;
22470;SDS011;11402;51.374;6.594;2023-07-31T10:00:34;11.55;;;6.30;;
22470;SDS011;11402;51.374;6.594;2023-07-31T10:03:01;9.50;;;6.28;;
22470;SDS011;11402;51.374;6.594;2023-07-31T10:05:30;12.27;;;6.30;;
22470;SDS011;11402;51.374;6.594;2023-07-31T10:07:59;11.55;;;6.13;;
22470;SDS011;11402;51.374;6.594;2023-07-31T10:10:25;9.30;;;5.75;;
22470;SDS011;11402;51.374;6.594;2023-07-31T10:12:52;11.18;;;5.68;;
22470;SDS011;11402;51.374;6.594;2023-07-31T10:15:19;10.10;;;5.70;;
22470;SDS011;11402;51.374;6.594;2023-07-31T10:17:48;12.27;;;6.10;;
22470;SDS011;11402;51.374;6.594;2023-07-31T10:20:15;13.60;;;6.00;;
22470;SDS011;11402;51.374;6.594;2023-07-31T10:22:42;11.77;;;6.00;;
22470;SDS011;11402;51.374;6.594;2023-07-31T10:25:10;10.07;;;5.50;;
22470;SDS011;11402;51.374;6.594;2023-07-31T10:27:38;10.63;;;5.82;;
22470;SDS011;11402;51.374;6.594;2023-07-31T10:30:04;11.35;;;5.70;;
22470;SDS011;11402;51.374;6.594;2023-07-31T10:32:32;9.75;;;5.47;;
22470;SDS011;11402;51.374;6.594;2023-07-31T10:34:59;11.73;;;5.18;;
22470;SDS011;11402;51.374;6.594;2023-07-31T10:37:28;9.63;;;5.75;;
22470;SDS011;11402;51.374;6.594;2023-07-31T10:40:16;11.70;;;5.68;;
22470;SDS011;11402;51.374;6.594;2023-07-31T10:42:49;11.55;;;6.07;;
22470;SDS011;11402;51.374;6.594;2023-07-31T10:48:03;12.15;;;5.90;;
22470;SDS011;11402;51.374;6.594;2023-07-31T10:50:31;10.60;;;5.45;;
22470;SDS011;11402;51.374;6.594;2023-07-31T10:52:58;14.40;;;6.03;;
22470;SDS011;11402;51.374;6.594;2023-07-31T10:55:41;11.32;;;5.50;;
22470;SDS011;11402;51.374;6.594;2023-07-31T11:00:39;11.23;;;5.43;;
22470;SDS011;11402;51.374;6.594;2023-07-31T11:08:13;10.50;;;5.38;;
22470;SDS011;11402;51.374;6.594;2023-07-31T11:10:39;9.80;;;4.88;;
22470;SDS011;11402;51.374;6.594;2023-07-31T11:13:05;13.02;;;5.30;;
22470;SDS011;11402;51.374;6.594;2023-07-31T11:15:31;11.52;;;4.72;;
22470;SDS011;11402;51.374;6.594;2023-07-31T11:17:57;10.50;;;4.68;;
22470;SDS011;11402;51.374;6.594;2023-07-31T11:20:25;9.63;;;4.63;;
22470;SDS011;11402;51.374;6.594;2023-07-31T11:22:51;8.20;;;4.60;;
22470;SDS011;11402;51.374;6.594;2023-07-31T11:25:17;13.57;;;4.30;;
22470;SDS011;11402;51.374;6.594;2023-07-31T11:27:43;12.95;;;5.30;;
22470;SDS011;11402;51.374;6.594;2023-07-31T11:30:09;10.38;;;5.13;;
22470;SDS011;11402;51.374;6.594;2023-07-31T11:32:38;7.30;;;4.60;;
22470;SDS011;11402;51.374;6.594;2023-07-31T11:35:04;9.55;;;5.03;;
22470;SDS011;11402;51.374;6.594;2023-07-31T11:37:40;13.45;;;5.10;;
22470;SDS011;11402;51.374;6.594;2023-07-31T11:40:07;8.30;;;4.75;;
22470;SDS011;11402;51.374;6.594;2023-07-31T11:42:34;10.32;;;4.57;;
22470;SDS011;11402;51.374;6.594;2023-07-31T11:45:03;13.30;;;4.38;;
22470;SDS011;11402;51.374;6.594;2023-07-31T11:47:33;10.93;;;4.10;;
22470;SDS011;11402;51.374;6.594;2023-07-31T11:50:02;10.15;;;4.38;;
22470;SDS011;11402;51.374;6.594;2023-07-31T11:52:36;7.63;;;4.40;;
22470;SDS011;11402;51.374;6.594;2023-07-31T11:55:11;10.00;;;4.72;;
22470;SDS011;11402;51.374;6.594;2023-07-31T11:57:38;11.07;;;5.32;;
22470;SDS011;11402;51.374;6.594;2023-07-31T12:00:07;8.45;;;4.45;;
22470;SDS011;11402;51.374;6.594;2023-07-31T12:02:35;11.23;;;4.55;;
22470;SDS011;11402;51.374;6.594;2023-07-31T12:05:02;8.35;;;4.72;;
22470;SDS011;11402;51.374;6.594;2023-07-31T12:07:42;9.43;;;4.68;;
22470;SDS011;11402;51.374;6.594;2023-07-31T12:10:22;9.45;;;4.47;;
22470;SDS011;11402;51.374;6.594;2023-07-31T12:12:55;9.77;;;4.60;;
22470;SDS011;11402;51.374;6.594;2023-07-31T12:15:44;8.65;;;4.25;;
22470;SDS011;11402;51.374;6.594;2023-07-31T12:18:11;8.63;;;4.60;;
22470;SDS011;11402;51.374;6.594;2023-07-31T12:20:45;14.27;;;4.38;;
22470;SDS011;11402;51.374;6.594;2023-07-31T12:23:15;9.18;;;4.50;;
22470;SDS011;11402;51.374;6.594;2023-07-31T12:25:43;6.72;;;4.15;;
22470;SDS011;11402;51.374;6.594;2023-07-31T12:28:08;7.22;;;4.18;;
22470;SDS011;11402;51.374;6.594;2023-07-31T12:30:38;11.70;;;4.00;;
22470;SDS011;11402;51.374;6.594;2023-07-31T12:33:12;7.72;;;4.05;;
22470;SDS011;11402;51.374;6.594;2023-07-31T12:36:01;6.95;;;4.22;;
22470;SDS011;11402;51.374;6.594;2023-07-31T12:38:26;10.40;;;4.20;;
22470;SDS011;11402;51.374;6.594;2023-07-31T12:40:52;6.78;;;4.22;;
22470;SDS011;11402;51.374;6.594;2023-07-31T12:43:17;7.43;;;3.92;;
22470;SDS011;11402;51.374;6.594;2023-07-31T12:45:43;9.75;;;4.28;;
22470;SDS011;11402;51.374;6.594;2023-07-31T12:48:08;7.85;;;4.30;;
22470;SDS011;11402;51.374;6.594;2023-07-31T12:50:34;8.68;;;4.00;;
22470;SDS011;11402;51.374;6.594;2023-07-31T12:53:01;10.15;;;4.20;;
22470;SDS011;11402;51.374;6.594;2023-07-31T12:55:28;10.27;;;4.43;;
22470;SDS011;11402;51.374;6.594;2023-07-31T12:57:55;8.77;;;4.15;;
22470;SDS011;11402;51.374;6.594;2023-07-31T13:00:21;9.57;;;4.63;;
22470;SDS011;11402;51.374;6.594;2023-07-31T13:02:47;8.10;;;4.35;;
22470;SDS011;11402;51.374;6.594;2023-07-31T13:05:12;7.60;;;4.68;;
22470;SDS011;11402;51.374;6.594;2023-07-31T13:07:39;12.52;;;4.90;;
22470;SDS011;11402;51.374;6.594;2023-07-31T13:10:05;10.82;;;5.00;;
22470;SDS011;11402;51.374;6.594;2023-07-31T13:12:31;8.18;;;5.13;;
22470;SDS011;11402;51.374;6.594;2023-07-31T13:14:57;7.53;;;4.53;;
22470;SDS011;11402;51.374;6.594;2023-07-31T13:17:23;12.18;;;5.15;;
22470;SDS011;11402;51.374;6.594;2023-07-31T13:19:48;13.30;;;5.32;;
22470;SDS011;11402;51.374;6.594;2023-07-31T13:22:14;12.45;;;5.45;;
22470;SDS011;11402;51.374;6.594;2023-07-31T13:24:40;12.20;;;5.80;;
22470;SDS011;11402;51.374;6.594;2023-07-31T13:27:05;12.38;;;5.90;;
22470;SDS011;11402;51.374;6.594;2023-07-31T13:29:31;10.45;;;5.40;;
22470;SDS011;11402;51.374;6.594;2023-07-31T13:31:57;13.32;;;5.30;;
22470;SDS011;11402;51.374;6.594;2023-07-31T13:34:23;9.85;;;5.70;;
22470;SDS011;11402;51.374;6.594;2023-07-31T13:36:48;11.15;;;6.15;;
22470;SDS011;11402;51.374;6.594;2023-07-31T13:39:14;16.73;;;5.53;;
22470;SDS011;11402;51.374;6.594;2023-07-31T13:41:39;17.38;;;5.47;;
22470;SDS011;11402;51.374;6.594;2023-07-31T13:44:05;9.68;;;5.05;;
22470;SDS011;11402;51.374;6.594;2023-07-31T13:46:31;12.40;;;5.47;;
22470;SDS011;11402;51.374;6.594;2023-07-31T13:48:57;11.65;;;5.53;;
22470;SDS011;11402;51.374;6.594;2023-07-31T13:51:24;13.15;;;5.88;;
22470;SDS011;11402;51.374;6.594;2023-07-31T13:53:52;13.25;;;5.78;;
22470;SDS011;11402;51.374;6.594;2023-07-31T13:56:18;11.88;;;5.70;;
22470;SDS011;11402;51.374;6.594;2023-07-31T13:58:43;11.48;;;5.70;;
22470;SDS011;11402;51.374;6.594;2023-07-31T14:01:09;13.57;;;6.00;;
22470;SDS011;11402;51.374;6.594;2023-07-31T14:03:34;10.98;;;5.75;;
22470;SDS011;11402;51.374;6.594;2023-07-31T14:06:00;10.60;;;5.25;;
22470;SDS011;11402;51.374;6.594;2023-07-31T14:08:26;13.00;;;5.15;;
22470;SDS011;11402;51.374;6.594;2023-07-31T14:10:51;16.60;;;8.15;;
22470;SDS011;11402;51.374;6.594;2023-07-31T14:13:17;14.27;;;6.75;;
22470;SDS011;11402;51.374;6.594;2023-07-31T14:15:43;12.52;;;6.00;;
22470;SDS011;11402;51.374;6.594;2023-07-31T14:18:09;14.55;;;5.22;;
22470;SDS011;11402;51.374;6.594;2023-07-31T14:20:34;9.48;;;5.20;;
22470;SDS011;11402;51.374;6.594;2023-07-31T14:23:00;13.68;;;5.55;;
22470;SDS011;11402;51.374;6.594;2023-07-31T14:25:27;9.85;;;5.00;;
22470;SDS011;11402;51.374;6.594;2023-07-31T14:27:52;9.43;;;4.88;;
22470;SDS011;11402;51.374;6.594;2023-07-31T14:30:18;10.13;;;5.18;;
22470;SDS011;11402;51.374;6.594;2023-07-31T14:32:44;8.45;;;4.82;;
22470;SDS011;11402;51.374;6.594;2023-07-31T14:35:09;9.02;;;4.70;;
22470;SDS011;11402;51.374;6.594;2023-07-31T14:37:41;7.60;;;4.70;;
22470;SDS011;11402;51.374;6.594;2023-07-31T14:42:35;6.43;;;4.45;;
22470;SDS011;11402;51.374;6.594;2023-07-31T14:45:01;6.18;;;3.90;;
22470;SDS011;11402;51.374;6.594;2023-07-31T14:47:28;9.27;;;4.20;;
22470;SDS011;11402;51.374;6.594;2023-07-31T14:49:53;9.38;;;4.50;;
22470;SDS011;11402;51.374;6.594;2023-07-31T14:52:19;8.63;;;4.07;;
22470;SDS011;11402;51.374;6.594;2023-07-31T14:54:44;6.60;;;3.90;;
22470;SDS011;11402;51.374;6.594;2023-07-31T14:57:10;4.88;;;3.80;;
22470;SDS011;11402;51.374;6.594;2023-07-31T14:59:36;6.68;;;3.75;;
22470;SDS011;11402;51.374;6.594;2023-07-31T15:02:01;6.30;;;3.97;;